sensor_id;sensor_type;location;lat;lon;timestamp;P1;durP1;ratioP1;P2;durP2;ratioP2
30539;SDS011;17321;46.312;4.776;2022-11-15T00:01:21;14.88;;;10.98;;
30539;SDS011;17321;46.312;4.776;2022-11-15T00:03:50;14.30;;;11.95;;
30539;SDS011;17321;46.312;4.776;2022-11-15T00:06:16;13.23;;;10.18;;
30539;SDS011;17321;46.312;4.776;2022-11-15T00:08:42;19.83;;;12.55;;
30539;SDS011;17321;46.312;4.776;2022-11-15T00:11:09;12.15;;;10.80;;
30539;SDS011;17321;46.312;4.776;2022-11-15T00:13:36;12.43;;;9.52;;
30539;SDS011;17321;46.312;4.776;2022-11-15T00:16:02;13.77;;;10.75;;
30539;SDS011;17321;46.312;4.776;2022-11-15T00:18:28;12.07;;;10.02;;
30539;SDS011;17321;46.312;4.776;2022-11-15T00:20:55;13.35;;;10.93;;
30539;SDS011;17321;46.312;4.776;2022-11-15T00:23:21;11.27;;;9.27;;
30539;SDS011;17321;46.312;4.776;2022-11-15T00:25:47;17.02;;;10.52;;
30539;SDS011;17321;46.312;4.776;2022-11-15T00:28:20;15.65;;;10.10;;
30539;SDS011;17321;46.312;4.776;2022-11-15T00:30:46;16.75;;;10.73;;
30539;SDS011;17321;46.312;4.776;2022-11-15T00:33:12;14.38;;;10.07;;
30539;SDS011;17321;46.312;4.776;2022-11-15T00:35:38;12.95;;;9.02;;
30539;SDS011;17321;46.312;4.776;2022-11-15T00:38:05;13.60;;;9.88;;
30539;SDS011;17321;46.312;4.776;2022-11-15T00:40:31;11.65;;;10.30;;
30539;SDS011;17321;46.312;4.776;2022-11-15T00:42:57;12.43;;;9.68;;
30539;SDS011;17321;46.312;4.776;2022-11-15T00:45:23;12.77;;;9.70;;
30539;SDS011;17321;46.312;4.776;2022-11-15T00:47:50;11.50;;;9.70;;
30539;SDS011;17321;46.312;4.776;2022-11-15T00:50:16;14.80;;;9.00;;
30539;SDS011;17321;46.312;4.776;2022-11-15T00:52:43;10.18;;;8.93;;
30539;SDS011;17321;46.312;4.776;2022-11-15T00:55:13;12.15;;;8.80;;
30539;SDS011;17321;46.312;4.776;2022-11-15T00:57:40;12.30;;;9.65;;
30539;SDS011;17321;46.312;4.776;2022-11-15T01:00:06;10.65;;;9.25;;
30539;SDS011;17321;46.312;4.776;2022-11-15T01:02:32;14.13;;;10.18;;
30539;SDS011;17321;46.312;4.776;2022-11-15T01:04:58;15.77;;;11.02;;
30539;SDS011;17321;46.312;4.776;2022-11-15T01:07:24;16.40;;;11.70;;
30539;SDS011;17321;46.312;4.776;2022-11-15T01:09:51;14.00;;;10.07;;
30539;SDS011;17321;46.312;4.776;2022-11-15T01:12:17;10.98;;;9.65;;
30539;SDS011;17321;46.312;4.776;2022-11-15T01:14:43;21.08;;;10.60;;
30539;SDS011;17321;46.312;4.776;2022-11-15T01:17:09;17.98;;;13.13;;
30539;SDS011;17321;46.312;4.776;2022-11-15T01:19:35;14.13;;;11.63;;
30539;SDS011;17321;46.312;4.776;2022-11-15T01:22:01;16.45;;;10.75;;
30539;SDS011;17321;46.312;4.776;2022-11-15T01:24:27;22.05;;;13.65;;
30539;SDS011;17321;46.312;4.776;2022-11-15T01:26:53;17.13;;;12.70;;
30539;SDS011;17321;46.312;4.776;2022-11-15T01:29:19;13.23;;;10.45;;
30539;SDS011;17321;46.312;4.776;2022-11-15T01:31:46;14.05;;;11.40;;
30539;SDS011;17321;46.312;4.776;2022-11-15T01:34:12;15.15;;;11.80;;
30539;SDS011;17321;46.312;4.776;2022-11-15T01:36:40;18.30;;;12.50;;
30539;SDS011;17321;46.312;4.776;2022-11-15T01:39:06;26.33;;;16.50;;
30539;SDS011;17321;46.312;4.776;2022-11-15T01:41:33;17.95;;;12.35;;
30539;SDS011;17321;46.312;4.776;2022-11-15T01:46:45;24.40;;;14.95;;
30539;SDS011;17321;46.312;4.776;2022-11-15T01:49:14;19.88;;;13.55;;
30539;SDS011;17321;46.312;4.776;2022-11-15T01:51:41;17.13;;;11.75;;
30539;SDS011;17321;46.312;4.776;2022-11-15T01:54:08;21.52;;;14.35;;
30539;SDS011;17321;46.312;4.776;2022-11-15T01:56:38;15.20;;;11.60;;
30539;SDS011;17321;46.312;4.776;2022-11-15T01:59:07;18.20;;;13.93;;
30539;SDS011;17321;46.312;4.776;2022-11-15T02:01:34;17.80;;;13.73;;
30539;SDS011;17321;46.312;4.776;2022-11-15T02:04:02;23.40;;;14.95;;
30539;SDS011;17321;46.312;4.776;2022-11-15T02:08:56;15.55;;;11.90;;
30539;SDS011;17321;46.312;4.776;2022-11-15T02:11:23;13.98;;;11.93;;
30539;SDS011;17321;46.312;4.776;2022-11-15T02:13:49;19.27;;;13.60;;
30539;SDS011;17321;46.312;4.776;2022-11-15T02:18:52;15.07;;;12.45;;
30539;SDS011;17321;46.312;4.776;2022-11-15T02:31:58;15.07;;;12.18;;
30539;SDS011;17321;46.312;4.776;2022-11-15T02:34:28;15.95;;;11.98;;
30539;SDS011;17321;46.312;4.776;2022-11-15T02:37:02;19.58;;;12.57;;
30539;SDS011;17321;46.312;4.776;2022-11-15T02:39:44;21.25;;;13.23;;
30539;SDS011;17321;46.312;4.776;2022-11-15T02:42:25;20.77;;;13.50;;
30539;SDS011;17321;46.312;4.776;2022-11-15T02:45:12;20.52;;;13.25;;
30539;SDS011;17321;46.312;4.776;2022-11-15T02:47:43;14.83;;;13.10;;
30539;SDS011;17321;46.312;4.776;2022-11-15T02:50:10;18.10;;;13.68;;
30539;SDS011;17321;46.312;4.776;2022-11-15T02:52:38;22.38;;;14.07;;
30539;SDS011;17321;46.312;4.776;2022-11-15T02:55:04;16.77;;;13.77;;
30539;SDS011;17321;46.312;4.776;2022-11-15T02:57:36;21.42;;;14.10;;
30539;SDS011;17321;46.312;4.776;2022-11-15T03:00:09;17.85;;;14.80;;
30539;SDS011;17321;46.312;4.776;2022-11-15T03:02:39;20.10;;;14.57;;
30539;SDS011;17321;46.312;4.776;2022-11-15T03:07:43;17.77;;;13.88;;
30539;SDS011;17321;46.312;4.776;2022-11-15T03:10:18;18.77;;;14.73;;
30539;SDS011;17321;46.312;4.776;2022-11-15T03:12:57;18.27;;;14.55;;
30539;SDS011;17321;46.312;4.776;2022-11-15T03:15:31;16.57;;;13.67;;
30539;SDS011;17321;46.312;4.776;2022-11-15T03:17:59;24.42;;;14.35;;
30539;SDS011;17321;46.312;4.776;2022-11-15T03:20:26;20.90;;;14.35;;
30539;SDS011;17321;46.312;4.776;2022-11-15T03:22:52;23.63;;;14.98;;
30539;SDS011;17321;46.312;4.776;2022-11-15T03:25:21;20.17;;;15.07;;
30539;SDS011;17321;46.312;4.776;2022-11-15T03:27:50;21.98;;;15.10;;
30539;SDS011;17321;46.312;4.776;2022-11-15T03:30:17;19.17;;;14.45;;
30539;SDS011;17321;46.312;4.776;2022-11-15T03:32:45;21.95;;;14.07;;
30539;SDS011;17321;46.312;4.776;2022-11-15T03:35:12;29.63;;;15.47;;
30539;SDS011;17321;46.312;4.776;2022-11-15T03:37:40;21.58;;;15.38;;
30539;SDS011;17321;46.312;4.776;2022-11-15T03:40:08;17.50;;;14.75;;
30539;SDS011;17321;46.312;4.776;2022-11-15T03:42:48;17.92;;;13.65;;
30539;SDS011;17321;46.312;4.776;2022-11-15T03:45:21;21.20;;;14.30;;
30539;SDS011;17321;46.312;4.776;2022-11-15T03:47:52;17.63;;;14.95;;
30539;SDS011;17321;46.312;4.776;2022-11-15T03:50:19;18.48;;;14.15;;
30539;SDS011;17321;46.312;4.776;2022-11-15T03:52:47;19.70;;;14.93;;
30539;SDS011;17321;46.312;4.776;2022-11-15T03:55:15;18.25;;;14.15;;
30539;SDS011;17321;46.312;4.776;2022-11-15T03:57:41;18.42;;;13.50;;
30539;SDS011;17321;46.312;4.776;2022-11-15T04:00:08;20.17;;;14.20;;
30539;SDS011;17321;46.312;4.776;2022-11-15T04:02:34;18.50;;;13.13;;
30539;SDS011;17321;46.312;4.776;2022-11-15T04:05:00;14.00;;;12.23;;
30539;SDS011;17321;46.312;4.776;2022-11-15T04:07:26;20.65;;;13.57;;
30539;SDS011;17321;46.312;4.776;2022-11-15T04:09:53;14.20;;;10.98;;
30539;SDS011;17321;46.312;4.776;2022-11-15T04:12:32;19.63;;;13.77;;
30539;SDS011;17321;46.312;4.776;2022-11-15T04:14:59;24.35;;;14.98;;
30539;SDS011;17321;46.312;4.776;2022-11-15T04:17:44;12.52;;;10.60;;
30539;SDS011;17321;46.312;4.776;2022-11-15T04:23:03;15.77;;;11.10;;
30539;SDS011;17321;46.312;4.776;2022-11-15T04:25:52;13.13;;;11.20;;
30539;SDS011;17321;46.312;4.776;2022-11-15T04:28:18;18.98;;;11.60;;
30539;SDS011;17321;46.312;4.776;2022-11-15T04:30:44;16.70;;;11.43;;
30539;SDS011;17321;46.312;4.776;2022-11-15T04:33:10;11.93;;;10.73;;
30539;SDS011;17321;46.312;4.776;2022-11-15T04:35:37;16.42;;;12.32;;
30539;SDS011;17321;46.312;4.776;2022-11-15T04:38:04;18.02;;;13.20;;
30539;SDS011;17321;46.312;4.776;2022-11-15T04:40:30;17.10;;;12.93;;
30539;SDS011;17321;46.312;4.776;2022-11-15T04:42:56;15.95;;;12.23;;
30539;SDS011;17321;46.312;4.776;2022-11-15T04:45:22;14.18;;;11.10;;
30539;SDS011;17321;46.312;4.776;2022-11-15T04:47:48;14.10;;;11.35;;
30539;SDS011;17321;46.312;4.776;2022-11-15T04:50:15;15.43;;;12.45;;
30539;SDS011;17321;46.312;4.776;2022-11-15T04:52:42;18.05;;;13.27;;
30539;SDS011;17321;46.312;4.776;2022-11-15T04:55:09;17.20;;;12.65;;
30539;SDS011;17321;46.312;4.776;2022-11-15T04:57:36;15.05;;;12.00;;
30539;SDS011;17321;46.312;4.776;2022-11-15T05:00:04;14.77;;;11.73;;
30539;SDS011;17321;46.312;4.776;2022-11-15T05:02:30;14.73;;;11.23;;
30539;SDS011;17321;46.312;4.776;2022-11-15T05:05:16;12.40;;;10.52;;
30539;SDS011;17321;46.312;4.776;2022-11-15T05:07:42;15.40;;;11.77;;
30539;SDS011;17321;46.312;4.776;2022-11-15T05:10:08;23.63;;;11.85;;
30539;SDS011;17321;46.312;4.776;2022-11-15T05:12:35;16.35;;;11.82;;
30539;SDS011;17321;46.312;4.776;2022-11-15T05:15:01;16.63;;;11.65;;
30539;SDS011;17321;46.312;4.776;2022-11-15T05:17:27;15.80;;;10.95;;
30539;SDS011;17321;46.312;4.776;2022-11-15T05:19:53;11.45;;;9.52;;
30539;SDS011;17321;46.312;4.776;2022-11-15T05:22:20;13.90;;;10.30;;
30539;SDS011;17321;46.312;4.776;2022-11-15T05:24:46;14.68;;;10.32;;
30539;SDS011;17321;46.312;4.776;2022-11-15T05:27:12;15.27;;;10.18;;
30539;SDS011;17321;46.312;4.776;2022-11-15T05:29:38;13.40;;;9.32;;
30539;SDS011;17321;46.312;4.776;2022-11-15T05:32:05;14.43;;;10.35;;
30539;SDS011;17321;46.312;4.776;2022-11-15T05:34:31;13.63;;;10.15;;
30539;SDS011;17321;46.312;4.776;2022-11-15T05:36:57;12.57;;;10.25;;
30539;SDS011;17321;46.312;4.776;2022-11-15T05:39:24;16.85;;;10.18;;
30539;SDS011;17321;46.312;4.776;2022-11-15T05:41:52;19.83;;;12.32;;
30539;SDS011;17321;46.312;4.776;2022-11-15T05:44:21;16.63;;;10.07;;
30539;SDS011;17321;46.312;4.776;2022-11-15T05:46:48;13.32;;;9.48;;
30539;SDS011;17321;46.312;4.776;2022-11-15T05:49:15;15.32;;;10.38;;
30539;SDS011;17321;46.312;4.776;2022-11-15T05:51:43;15.40;;;9.35;;
30539;SDS011;17321;46.312;4.776;2022-11-15T05:54:11;14.02;;;9.20;;
30539;SDS011;17321;46.312;4.776;2022-11-15T05:56:37;12.02;;;8.98;;
30539;SDS011;17321;46.312;4.776;2022-11-15T05:59:03;14.57;;;10.60;;
30539;SDS011;17321;46.312;4.776;2022-11-15T06:01:29;12.25;;;8.45;;
30539;SDS011;17321;46.312;4.776;2022-11-15T06:03:56;14.88;;;8.25;;
30539;SDS011;17321;46.312;4.776;2022-11-15T06:06:22;12.05;;;7.95;;
30539;SDS011;17321;46.312;4.776;2022-11-15T06:08:48;9.70;;;8.07;;
30539;SDS011;17321;46.312;4.776;2022-11-15T06:11:14;8.50;;;7.68;;
30539;SDS011;17321;46.312;4.776;2022-11-15T06:13:40;7.07;;;6.38;;
30539;SDS011;17321;46.312;4.776;2022-11-15T06:16:06;12.27;;;6.93;;
30539;SDS011;17321;46.312;4.776;2022-11-15T06:18:33;6.18;;;5.57;;
30539;SDS011;17321;46.312;4.776;2022-11-15T06:20:59;8.48;;;7.55;;
30539;SDS011;17321;46.312;4.776;2022-11-15T06:23:25;8.55;;;6.88;;
30539;SDS011;17321;46.312;4.776;2022-11-15T06:25:51;9.45;;;6.78;;
30539;SDS011;17321;46.312;4.776;2022-11-15T06:28:17;10.77;;;6.57;;
30539;SDS011;17321;46.312;4.776;2022-11-15T06:30:43;10.85;;;6.53;;
30539;SDS011;17321;46.312;4.776;2022-11-15T06:33:09;8.68;;;6.68;;
30539;SDS011;17321;46.312;4.776;2022-11-15T06:35:36;11.35;;;7.78;;
30539;SDS011;17321;46.312;4.776;2022-11-15T06:38:03;10.38;;;7.47;;
30539;SDS011;17321;46.312;4.776;2022-11-15T06:40:30;8.20;;;7.10;;
30539;SDS011;17321;46.312;4.776;2022-11-15T06:42:59;8.15;;;7.35;;
30539;SDS011;17321;46.312;4.776;2022-11-15T06:47:51;8.88;;;7.53;;
30539;SDS011;17321;46.312;4.776;2022-11-15T06:50:18;10.43;;;6.95;;
30539;SDS011;17321;46.312;4.776;2022-11-15T06:52:44;10.60;;;7.53;;
30539;SDS011;17321;46.312;4.776;2022-11-15T06:55:10;9.20;;;7.68;;
30539;SDS011;17321;46.312;4.776;2022-11-15T06:57:36;9.90;;;7.88;;
30539;SDS011;17321;46.312;4.776;2022-11-15T07:00:03;11.95;;;8.60;;
30539;SDS011;17321;46.312;4.776;2022-11-15T07:02:30;9.05;;;7.28;;
30539;SDS011;17321;46.312;4.776;2022-11-15T07:04:56;7.72;;;6.55;;
30539;SDS011;17321;46.312;4.776;2022-11-15T07:07:22;16.55;;;7.03;;
30539;SDS011;17321;46.312;4.776;2022-11-15T07:09:48;11.57;;;7.80;;
30539;SDS011;17321;46.312;4.776;2022-11-15T07:12:14;8.15;;;6.72;;
30539;SDS011;17321;46.312;4.776;2022-11-15T07:14:41;8.60;;;7.70;;
30539;SDS011;17321;46.312;4.776;2022-11-15T07:17:07;10.88;;;8.05;;
30539;SDS011;17321;46.312;4.776;2022-11-15T07:19:33;9.02;;;7.60;;
30539;SDS011;17321;46.312;4.776;2022-11-15T07:21:59;13.45;;;8.52;;
30539;SDS011;17321;46.312;4.776;2022-11-15T07:24:25;8.40;;;7.20;;
30539;SDS011;17321;46.312;4.776;2022-11-15T07:26:51;8.13;;;7.25;;
30539;SDS011;17321;46.312;4.776;2022-11-15T07:29:17;12.80;;;8.45;;
30539;SDS011;17321;46.312;4.776;2022-11-15T07:31:43;9.25;;;7.45;;
30539;SDS011;17321;46.312;4.776;2022-11-15T07:34:09;10.25;;;7.57;;
30539;SDS011;17321;46.312;4.776;2022-11-15T07:36:35;11.57;;;7.53;;
30539;SDS011;17321;46.312;4.776;2022-11-15T07:39:01;15.85;;;8.25;;
30539;SDS011;17321;46.312;4.776;2022-11-15T07:41:28;8.10;;;6.97;;
30539;SDS011;17321;46.312;4.776;2022-11-15T07:43:55;17.42;;;7.30;;
30539;SDS011;17321;46.312;4.776;2022-11-15T07:46:22;9.52;;;7.93;;
30539;SDS011;17321;46.312;4.776;2022-11-15T07:48:48;7.57;;;6.85;;
30539;SDS011;17321;46.312;4.776;2022-11-15T07:51:15;9.48;;;6.85;;
30539;SDS011;17321;46.312;4.776;2022-11-15T07:53:41;10.15;;;8.13;;
30539;SDS011;17321;46.312;4.776;2022-11-15T07:56:08;14.48;;;7.30;;
30539;SDS011;17321;46.312;4.776;2022-11-15T07:58:34;10.90;;;7.50;;
30539;SDS011;17321;46.312;4.776;2022-11-15T08:01:04;11.30;;;8.05;;
30539;SDS011;17321;46.312;4.776;2022-11-15T08:03:30;11.43;;;8.68;;
30539;SDS011;17321;46.312;4.776;2022-11-15T08:05:56;14.57;;;9.18;;
30539;SDS011;17321;46.312;4.776;2022-11-15T08:08:22;9.88;;;7.70;;
30539;SDS011;17321;46.312;4.776;2022-11-15T08:10:48;9.52;;;8.45;;
30539;SDS011;17321;46.312;4.776;2022-11-15T08:13:14;10.30;;;8.57;;
30539;SDS011;17321;46.312;4.776;2022-11-15T08:15:41;12.05;;;8.68;;
30539;SDS011;17321;46.312;4.776;2022-11-15T08:18:13;9.73;;;8.73;;
30539;SDS011;17321;46.312;4.776;2022-11-15T08:20:39;13.38;;;9.73;;
30539;SDS011;17321;46.312;4.776;2022-11-15T08:23:06;13.57;;;9.43;;
30539;SDS011;17321;46.312;4.776;2022-11-15T08:25:33;12.73;;;9.98;;
30539;SDS011;17321;46.312;4.776;2022-11-15T08:28:01;11.50;;;8.90;;
30539;SDS011;17321;46.312;4.776;2022-11-15T08:30:27;14.57;;;11.02;;
30539;SDS011;17321;46.312;4.776;2022-11-15T08:32:53;11.65;;;9.50;;
30539;SDS011;17321;46.312;4.776;2022-11-15T08:35:22;14.60;;;9.95;;
30539;SDS011;17321;46.312;4.776;2022-11-15T08:37:48;13.73;;;10.13;;
30539;SDS011;17321;46.312;4.776;2022-11-15T08:40:15;18.00;;;11.32;;
30539;SDS011;17321;46.312;4.776;2022-11-15T08:42:42;13.50;;;10.80;;
30539;SDS011;17321;46.312;4.776;2022-11-15T08:45:12;15.98;;;10.38;;
30539;SDS011;17321;46.312;4.776;2022-11-15T08:47:38;11.77;;;10.02;;
30539;SDS011;17321;46.312;4.776;2022-11-15T08:50:04;12.70;;;10.05;;
30539;SDS011;17321;46.312;4.776;2022-11-15T08:52:31;13.75;;;11.18;;
30539;SDS011;17321;46.312;4.776;2022-11-15T08:54:57;11.50;;;10.38;;
30539;SDS011;17321;46.312;4.776;2022-11-15T08:57:23;16.15;;;10.40;;
30539;SDS011;17321;46.312;4.776;2022-11-15T08:59:49;13.93;;;10.60;;
30539;SDS011;17321;46.312;4.776;2022-11-15T09:02:16;20.90;;;12.27;;
30539;SDS011;17321;46.312;4.776;2022-11-15T09:04:43;16.48;;;11.82;;
30539;SDS011;17321;46.312;4.776;2022-11-15T09:07:09;16.88;;;11.82;;
30539;SDS011;17321;46.312;4.776;2022-11-15T09:09:36;12.90;;;10.52;;
30539;SDS011;17321;46.312;4.776;2022-11-15T09:12:02;15.52;;;10.95;;
30539;SDS011;17321;46.312;4.776;2022-11-15T09:14:29;16.20;;;10.98;;
30539;SDS011;17321;46.312;4.776;2022-11-15T09:16:55;12.00;;;10.70;;
30539;SDS011;17321;46.312;4.776;2022-11-15T09:19:21;16.80;;;11.35;;
30539;SDS011;17321;46.312;4.776;2022-11-15T09:21:47;14.90;;;10.82;;
30539;SDS011;17321;46.312;4.776;2022-11-15T09:24:13;13.35;;;10.65;;
30539;SDS011;17321;46.312;4.776;2022-11-15T09:26:39;14.05;;;11.63;;
30539;SDS011;17321;46.312;4.776;2022-11-15T09:29:05;18.35;;;12.00;;
30539;SDS011;17321;46.312;4.776;2022-11-15T09:31:32;12.75;;;11.27;;
30539;SDS011;17321;46.312;4.776;2022-11-15T09:33:58;13.45;;;11.13;;
30539;SDS011;17321;46.312;4.776;2022-11-15T09:36:24;16.05;;;10.85;;
30539;SDS011;17321;46.312;4.776;2022-11-15T09:38:50;15.43;;;11.55;;
30539;SDS011;17321;46.312;4.776;2022-11-15T09:49:14;13.73;;;10.80;;
30539;SDS011;17321;46.312;4.776;2022-11-15T09:51:41;11.55;;;10.35;;
30539;SDS011;17321;46.312;4.776;2022-11-15T09:56:47;15.32;;;11.10;;
30539;SDS011;17321;46.312;4.776;2022-11-15T09:59:17;12.65;;;11.02;;
30539;SDS011;17321;46.312;4.776;2022-11-15T10:04:45;13.23;;;11.20;;
30539;SDS011;17321;46.312;4.776;2022-11-15T10:12:07;12.23;;;10.90;;
30539;SDS011;17321;46.312;4.776;2022-11-15T10:14:33;14.82;;;10.63;;
30539;SDS011;17321;46.312;4.776;2022-11-15T10:22:28;15.15;;;11.75;;
30539;SDS011;17321;46.312;4.776;2022-11-15T10:25:37;12.10;;;10.43;;
30539;SDS011;17321;46.312;4.776;2022-11-15T10:27:44;16.33;;;10.18;;
30539;SDS011;17321;46.312;4.776;2022-11-15T10:30:15;13.23;;;10.60;;
30539;SDS011;17321;46.312;4.776;2022-11-15T10:32:42;14.60;;;10.38;;
30539;SDS011;17321;46.312;4.776;2022-11-15T10:35:16;12.88;;;10.40;;
30539;SDS011;17321;46.312;4.776;2022-11-15T10:37:42;12.13;;;10.63;;
30539;SDS011;17321;46.312;4.776;2022-11-15T10:40:16;13.00;;;9.30;;
30539;SDS011;17321;46.312;4.776;2022-11-15T10:42:43;16.05;;;10.25;;
30539;SDS011;17321;46.312;4.776;2022-11-15T10:45:28;10.93;;;9.55;;
30539;SDS011;17321;46.312;4.776;2022-11-15T10:48:18;11.98;;;9.73;;
30539;SDS011;17321;46.312;4.776;2022-11-15T10:50:42;12.73;;;9.52;;
30539;SDS011;17321;46.312;4.776;2022-11-15T10:53:28;18.08;;;9.95;;
30539;SDS011;17321;46.312;4.776;2022-11-15T10:55:57;13.60;;;9.55;;
30539;SDS011;17321;46.312;4.776;2022-11-15T11:00:52;12.52;;;9.60;;
30539;SDS011;17321;46.312;4.776;2022-11-15T11:03:34;17.27;;;9.30;;
30539;SDS011;17321;46.312;4.776;2022-11-15T11:06:05;11.68;;;9.80;;
30539;SDS011;17321;46.312;4.776;2022-11-15T11:08:31;14.80;;;9.35;;
30539;SDS011;17321;46.312;4.776;2022-11-15T11:10:59;14.80;;;9.82;;
30539;SDS011;17321;46.312;4.776;2022-11-15T11:13:26;11.25;;;9.93;;
30539;SDS011;17321;46.312;4.776;2022-11-15T11:21:05;11.30;;;8.38;;
30539;SDS011;17321;46.312;4.776;2022-11-15T11:33:39;11.00;;;7.18;;
30539;SDS011;17321;46.312;4.776;2022-11-15T11:36:14;9.18;;;7.15;;
30539;SDS011;17321;46.312;4.776;2022-11-15T11:41:15;17.05;;;7.68;;
30539;SDS011;17321;46.312;4.776;2022-11-15T11:46:36;12.13;;;7.55;;
30539;SDS011;17321;46.312;4.776;2022-11-15T11:49:02;13.27;;;7.38;;
30539;SDS011;17321;46.312;4.776;2022-11-15T11:51:34;11.35;;;8.32;;
30539;SDS011;17321;46.312;4.776;2022-11-15T11:54:05;14.60;;;8.10;;
30539;SDS011;17321;46.312;4.776;2022-11-15T11:56:32;13.63;;;8.35;;
30539;SDS011;17321;46.312;4.776;2022-11-15T11:59:00;10.40;;;8.38;;
30539;SDS011;17321;46.312;4.776;2022-11-15T12:01:37;14.55;;;9.40;;
30539;SDS011;17321;46.312;4.776;2022-11-15T12:04:09;9.50;;;7.90;;
30539;SDS011;17321;46.312;4.776;2022-11-15T12:17:00;11.70;;;8.13;;
30539;SDS011;17321;46.312;4.776;2022-11-15T12:19:28;14.05;;;7.82;;
30539;SDS011;17321;46.312;4.776;2022-11-15T12:24:23;10.57;;;6.90;;
30539;SDS011;17321;46.312;4.776;2022-11-15T12:26:55;10.40;;;7.43;;
30539;SDS011;17321;46.312;4.776;2022-11-15T12:31:49;12.52;;;7.88;;
30539;SDS011;17321;46.312;4.776;2022-11-15T12:36:45;10.00;;;6.57;;
30539;SDS011;17321;46.312;4.776;2022-11-15T12:39:12;12.40;;;6.93;;
30539;SDS011;17321;46.312;4.776;2022-11-15T12:41:42;10.57;;;6.78;;
30539;SDS011;17321;46.312;4.776;2022-11-15T12:44:13;7.00;;;5.95;;
30539;SDS011;17321;46.312;4.776;2022-11-15T12:59:52;8.50;;;5.90;;
30539;SDS011;17321;46.312;4.776;2022-11-15T13:02:30;9.52;;;5.95;;
30539;SDS011;17321;46.312;4.776;2022-11-15T13:17:51;9.68;;;6.25;;
30539;SDS011;17321;46.312;4.776;2022-11-15T13:20:18;13.00;;;8.13;;
30539;SDS011;17321;46.312;4.776;2022-11-15T13:27:49;10.32;;;6.95;;
30539;SDS011;17321;46.312;4.776;2022-11-15T13:30:19;9.82;;;6.43;;
30539;SDS011;17321;46.312;4.776;2022-11-15T13:32:46;12.23;;;7.35;;
30539;SDS011;17321;46.312;4.776;2022-11-15T13:35:46;16.60;;;9.73;;
30539;SDS011;17321;46.312;4.776;2022-11-15T13:38:05;13.48;;;8.35;;
30539;SDS011;17321;46.312;4.776;2022-11-15T13:40:35;15.63;;;8.18;;
30539;SDS011;17321;46.312;4.776;2022-11-15T13:43:17;11.48;;;7.80;;
30539;SDS011;17321;46.312;4.776;2022-11-15T13:46:11;17.02;;;7.97;;
30539;SDS011;17321;46.312;4.776;2022-11-15T13:48:36;9.95;;;7.15;;
30539;SDS011;17321;46.312;4.776;2022-11-15T13:51:03;19.83;;;7.50;;
30539;SDS011;17321;46.312;4.776;2022-11-15T13:53:31;17.90;;;7.60;;
30539;SDS011;17321;46.312;4.776;2022-11-15T13:55:58;11.27;;;7.03;;
30539;SDS011;17321;46.312;4.776;2022-11-15T13:58:25;16.02;;;6.82;;
30539;SDS011;17321;46.312;4.776;2022-11-15T14:00:58;9.20;;;6.43;;
30539;SDS011;17321;46.312;4.776;2022-11-15T14:03:25;10.18;;;6.53;;
30539;SDS011;17321;46.312;4.776;2022-11-15T14:08:28;10.60;;;6.57;;
30539;SDS011;17321;46.312;4.776;2022-11-15T14:11:12;11.32;;;6.78;;
30539;SDS011;17321;46.312;4.776;2022-11-15T14:13:39;13.43;;;6.30;;
30539;SDS011;17321;46.312;4.776;2022-11-15T14:16:39;11.68;;;6.30;;
30539;SDS011;17321;46.312;4.776;2022-11-15T14:18:58;8.23;;;5.68;;
30539;SDS011;17321;46.312;4.776;2022-11-15T14:21:24;10.85;;;6.68;;
30539;SDS011;17321;46.312;4.776;2022-11-15T14:23:50;13.90;;;6.15;;
30539;SDS011;17321;46.312;4.776;2022-11-15T14:26:27;9.70;;;5.93;;
30539;SDS011;17321;46.312;4.776;2022-11-15T14:28:53;11.38;;;6.57;;
30539;SDS011;17321;46.312;4.776;2022-11-15T14:31:19;12.13;;;6.95;;
30539;SDS011;17321;46.312;4.776;2022-11-15T14:33:46;11.75;;;6.97;;
30539;SDS011;17321;46.312;4.776;2022-11-15T14:36:15;13.02;;;6.40;;
30539;SDS011;17321;46.312;4.776;2022-11-15T14:38:41;15.25;;;6.25;;
30539;SDS011;17321;46.312;4.776;2022-11-15T14:41:16;9.05;;;6.63;;
30539;SDS011;17321;46.312;4.776;2022-11-15T14:43:43;11.07;;;6.47;;
30539;SDS011;17321;46.312;4.776;2022-11-15T14:46:09;11.20;;;6.47;;
30539;SDS011;17321;46.312;4.776;2022-11-15T14:48:35;10.18;;;7.05;;
30539;SDS011;17321;46.312;4.776;2022-11-15T14:51:01;15.68;;;7.82;;
30539;SDS011;17321;46.312;4.776;2022-11-15T14:53:27;11.38;;;6.65;;
30539;SDS011;17321;46.312;4.776;2022-11-15T14:55:53;12.77;;;6.13;;
30539;SDS011;17321;46.312;4.776;2022-11-15T14:58:20;8.15;;;6.53;;
30539;SDS011;17321;46.312;4.776;2022-11-15T15:00:46;11.93;;;7.07;;
30539;SDS011;17321;46.312;4.776;2022-11-15T15:03:12;12.45;;;8.63;;
30539;SDS011;17321;46.312;4.776;2022-11-15T15:05:39;13.35;;;7.22;;
30539;SDS011;17321;46.312;4.776;2022-11-15T15:08:06;15.15;;;7.47;;
30539;SDS011;17321;46.312;4.776;2022-11-15T15:10:43;18.80;;;7.28;;
30539;SDS011;17321;46.312;4.776;2022-11-15T15:13:17;11.95;;;6.57;;
30539;SDS011;17321;46.312;4.776;2022-11-15T15:15:44;13.10;;;8.05;;
30539;SDS011;17321;46.312;4.776;2022-11-15T15:18:10;11.82;;;7.43;;
30539;SDS011;17321;46.312;4.776;2022-11-15T15:20:37;17.20;;;8.70;;
30539;SDS011;17321;46.312;4.776;2022-11-15T15:23:04;14.48;;;8.55;;
30539;SDS011;17321;46.312;4.776;2022-11-15T15:25:32;18.20;;;9.40;;
30539;SDS011;17321;46.312;4.776;2022-11-15T15:27:58;17.63;;;9.48;;
30539;SDS011;17321;46.312;4.776;2022-11-15T15:30:25;15.93;;;10.00;;
30539;SDS011;17321;46.312;4.776;2022-11-15T15:32:51;15.30;;;8.80;;
30539;SDS011;17321;46.312;4.776;2022-11-15T15:35:18;16.65;;;8.95;;
30539;SDS011;17321;46.312;4.776;2022-11-15T15:37:45;13.20;;;7.90;;
30539;SDS011;17321;46.312;4.776;2022-11-15T15:40:16;14.35;;;7.47;;
30539;SDS011;17321;46.312;4.776;2022-11-15T15:42:43;11.73;;;7.53;;
30539;SDS011;17321;46.312;4.776;2022-11-15T15:45:09;12.93;;;8.63;;
30539;SDS011;17321;46.312;4.776;2022-11-15T15:47:36;14.10;;;8.05;;
30539;SDS011;17321;46.312;4.776;2022-11-15T15:50:02;12.30;;;8.50;;
30539;SDS011;17321;46.312;4.776;2022-11-15T15:52:29;11.45;;;8.05;;
30539;SDS011;17321;46.312;4.776;2022-11-15T15:54:55;21.05;;;10.38;;
30539;SDS011;17321;46.312;4.776;2022-11-15T15:57:21;16.55;;;9.68;;
30539;SDS011;17321;46.312;4.776;2022-11-15T15:59:47;12.95;;;9.48;;
30539;SDS011;17321;46.312;4.776;2022-11-15T16:02:13;20.52;;;9.52;;
30539;SDS011;17321;46.312;4.776;2022-11-15T16:04:40;14.63;;;8.93;;
30539;SDS011;17321;46.312;4.776;2022-11-15T16:07:07;14.90;;;8.65;;
30539;SDS011;17321;46.312;4.776;2022-11-15T16:09:37;14.73;;;7.43;;
30539;SDS011;17321;46.312;4.776;2022-11-15T16:12:22;16.63;;;8.40;;
30539;SDS011;17321;46.312;4.776;2022-11-15T16:14:48;11.10;;;7.68;;
30539;SDS011;17321;46.312;4.776;2022-11-15T16:17:16;10.68;;;7.10;;
30539;SDS011;17321;46.312;4.776;2022-11-15T16:19:43;20.65;;;8.63;;
30539;SDS011;17321;46.312;4.776;2022-11-15T16:22:09;11.80;;;6.80;;
30539;SDS011;17321;46.312;4.776;2022-11-15T16:24:35;14.57;;;6.75;;
30539;SDS011;17321;46.312;4.776;2022-11-15T16:27:01;13.32;;;6.43;;
30539;SDS011;17321;46.312;4.776;2022-11-15T16:29:27;9.68;;;6.88;;
30539;SDS011;17321;46.312;4.776;2022-11-15T16:31:54;16.92;;;7.55;;
30539;SDS011;17321;46.312;4.776;2022-11-15T16:34:20;11.15;;;6.43;;
30539;SDS011;17321;46.312;4.776;2022-11-15T16:36:46;9.38;;;6.78;;
30539;SDS011;17321;46.312;4.776;2022-11-15T16:39:14;10.75;;;6.20;;
30539;SDS011;17321;46.312;4.776;2022-11-15T16:41:43;16.33;;;6.93;;